Time;durP1;ratioP1;P1;durP2;ratioP2;P2;SDS_P1;SDS_P2;PMS_P1;PMS_P2;Temp;Humidity;BMP_temperature;BMP_pressure;BME280_temperature;BME280_humidity;BME280_pressure;Samples;Min_cycle;Max_cycle;Signal;HPM_P1;HPM_P2
2023/05/11 00:02:15;;;;;;;23.17;11.60;;;11.80;99.90;;;;;;5019887;28;20026;-70
2023/05/11 00:04:40;;;;;;;22.05;12.52;;;11.90;99.90;;;;;;5013727;28;20373;-69
2023/05/11 00:07:06;;;;;;;22.67;11.38;;;11.80;99.90;;;;;;5016391;28;20054;-70
2023/05/11 00:09:31;;;;;;;18.85;10.85;;;11.80;99.90;;;;;;5017821;28;20025;-70
2023/05/11 00:11:57;;;;;;;19.50;11.18;;;11.80;99.90;;;;;;5003238;28;20040;-70
2023/05/11 00:14:23;;;;;;;21.52;11.38;;;11.80;99.90;;;;;;5016519;28;20643;-71
2023/05/11 00:16:48;;;;;;;20.50;11.10;;;11.80;99.90;;;;;;5015099;28;20041;-70
2023/05/11 00:19:14;;;;;;;18.33;10.93;;;11.80;99.90;;;;;;5016595;28;20099;-71
2023/05/11 00:21:39;;;;;;;22.10;11.77;;;11.80;99.90;;;;;;5008717;28;20037;-71
2023/05/11 00:24:05;;;;;;;22.17;11.85;;;11.70;99.90;;;;;;4996364;28;20045;-71
2023/05/11 00:26:31;;;;;;;21.27;11.32;;;11.70;99.90;;;;;;5014362;28;20038;-72
2023/05/11 00:28:56;;;;;;;21.88;11.43;;;11.70;99.90;;;;;;5015451;28;20417;-70
2023/05/11 00:31:22;;;;;;;20.20;11.77;;;11.70;99.90;;;;;;5016682;28;20351;-69
2023/05/11 00:33:48;;;;;;;19.55;11.48;;;11.70;99.90;;;;;;5013091;28;20151;-71
2023/05/11 00:36:13;;;;;;;19.35;11.30;;;11.70;99.90;;;;;;4997321;28;20049;-71
2023/05/11 00:38:40;;;;;;;22.95;11.10;;;11.70;99.90;;;;;;5012600;28;20123;-71
2023/05/11 00:41:07;;;;;;;22.05;12.00;;;11.70;99.90;;;;;;5016508;28;20058;-71
2023/05/11 00:43:32;;;;;;;20.77;11.68;;;11.70;99.90;;;;;;5032686;28;20053;-71
2023/05/11 00:45:58;;;;;;;20.77;11.25;;;11.70;99.90;;;;;;5026305;28;20052;-72
2023/05/11 00:48:24;;;;;;;21.00;11.00;;;11.70;99.90;;;;;;5015262;28;20046;-71
2023/05/11 00:50:50;;;;;;;21.10;11.82;;;11.70;99.90;;;;;;5020462;28;20484;-71
2023/05/11 00:53:15;;;;;;;19.98;10.60;;;11.70;99.90;;;;;;5003278;28;20072;-71
2023/05/11 00:55:41;;;;;;;18.30;10.60;;;11.60;99.90;;;;;;5017801;28;20164;-71
2023/05/11 00:58:07;;;;;;;21.67;11.98;;;11.70;99.90;;;;;;5016983;28;20099;-70
2023/05/11 01:00:32;;;;;;;21.45;11.30;;;11.60;99.90;;;;;;5020517;28;20049;-70
2023/05/11 01:03:00;;;;;;;22.98;12.88;;;11.60;99.90;;;;;;5018501;28;20037;-70
2023/05/11 01:05:35;;;;;;;22.58;11.80;;;11.60;99.90;;;;;;5016069;28;20053;-71
2023/05/11 01:08:15;;;;;;;23.23;12.60;;;11.60;99.90;;;;;;5021832;28;20046;-69
2023/05/11 01:10:56;;;;;;;24.60;11.98;;;11.60;99.90;;;;;;5016402;28;20412;-72
2023/05/11 01:13:21;;;;;;;;;;;11.60;99.90;;;;;;5021894;28;20049;-71
2023/05/11 01:15:55;;;;;;;24.25;12.82;;;11.50;99.90;;;;;;5005876;28;19945;-69
2023/05/11 01:18:26;;;;;;;25.10;13.27;;;11.60;99.90;;;;;;5014563;28;20048;-71
2023/05/11 01:21:02;;;;;;;26.10;12.95;;;11.50;99.90;;;;;;5017374;28;20107;-70
2023/05/11 01:24:10;;;;;;;23.17;12.85;;;11.60;99.90;;;;;;5020158;28;20041;-71
2023/05/11 01:27:21;;;;;;;21.52;11.68;;;11.60;99.90;;;;;;4973960;28;20092;-70
2023/05/11 01:30:18;;;;;;;24.08;11.95;;;11.60;99.90;;;;;;5013757;28;20061;-71
2023/05/11 01:32:44;;;;;;;21.33;12.20;;;11.60;99.90;;;;;;5012253;28;20453;-70
2023/05/11 01:35:20;;;;;;;24.38;12.60;;;11.60;99.90;;;;;;5023109;28;20037;-71
2023/05/11 01:37:50;;;;;;;22.88;12.27;;;11.60;99.90;;;;;;5013717;28;20047;-70
2023/05/11 01:40:17;;;;;;;29.05;14.93;;;11.60;99.90;;;;;;5017570;28;20181;-70
2023/05/11 01:43:00;;;;;;;25.00;13.93;;;11.50;99.90;;;;;;4999090;28;20394;-71
2023/05/11 01:45:29;;;;;;;27.48;14.35;;;11.60;99.90;;;;;;5019573;28;20115;-70
2023/05/11 01:47:56;;;;;;;31.15;14.73;;;11.60;99.90;;;;;;5017900;28;20030;-70
2023/05/11 01:50:24;;;;;;;34.97;15.57;;;11.60;99.90;;;;;;5010515;28;20041;-71
2023/05/11 01:52:51;;;;;;;37.00;17.75;;;11.60;99.90;;;;;;5009528;28;20100;-71
2023/05/11 01:55:21;;;;;;;37.78;17.60;;;11.60;99.90;;;;;;5009792;28;20042;-70
2023/05/11 01:57:50;;;;;;;42.90;18.83;;;11.60;99.90;;;;;;5017381;28;20038;-70
2023/05/11 02:00:17;;;;;;;46.83;18.95;;;11.60;99.90;;;;;;5009222;28;20030;-71
2023/05/11 02:02:46;;;;;;;40.17;18.00;;;11.60;99.90;;;;;;5011614;28;20057;-72
2023/05/11 02:05:16;;;;;;;43.88;20.00;;;11.50;99.90;;;;;;4998015;28;20034;-72
2023/05/11 02:07:42;;;;;;;39.30;17.08;;;11.50;99.90;;;;;;4996064;28;20042;-71
2023/05/11 02:10:09;;;;;;;41.25;18.08;;;11.50;99.90;;;;;;5020068;28;20042;-71
2023/05/11 02:12:37;;;;;;;44.15;18.77;;;11.50;99.90;;;;;;5015662;28;20060;-71
2023/05/11 02:15:03;;;;;;;39.75;16.98;;;11.50;99.90;;;;;;5018846;28;20112;-71
2023/05/11 02:17:31;;;;;;;44.92;18.00;;;11.50;99.90;;;;;;5011937;28;20042;-70
2023/05/11 02:19:59;;;;;;;46.35;18.75;;;11.50;99.90;;;;;;5023135;28;20432;-71
2023/05/11 02:22:25;;;;;;;44.70;18.55;;;11.50;99.90;;;;;;5014766;28;20717;-71
2023/05/11 02:24:51;;;;;;;45.88;19.77;;;11.40;99.90;;;;;;5002945;28;20033;-70
2023/05/11 02:27:16;;;;;;;44.55;18.60;;;11.50;99.90;;;;;;5021910;28;20046;-71
2023/05/11 02:29:42;;;;;;;44.70;18.98;;;11.40;99.90;;;;;;5023005;28;20061;-71
2023/05/11 02:32:15;;;;;;;42.38;18.95;;;11.50;99.90;;;;;;5012554;28;20498;-71
2023/05/11 02:34:44;;;;;;;41.03;17.75;;;11.50;99.90;;;;;;5020625;28;20507;-69
2023/05/11 02:37:13;;;;;;;47.55;18.30;;;11.50;99.90;;;;;;5017425;28;20499;-70
2023/05/11 02:39:42;;;;;;;48.88;19.30;;;11.50;99.90;;;;;;5023078;28;20087;-71
2023/05/11 02:42:14;;;;;;;56.13;20.70;;;11.50;99.90;;;;;;5019876;28;20053;-71
2023/05/11 02:44:46;;;;;;;55.53;22.00;;;11.50;99.90;;;;;;5019237;28;20050;-70
2023/05/11 02:47:15;;;;;;;55.33;21.58;;;11.40;99.90;;;;;;5023186;28;20068;-71
2023/05/11 02:49:42;;;;;;;57.05;21.58;;;11.40;99.90;;;;;;5016315;28;20060;-71
2023/05/11 02:52:09;;;;;;;48.15;19.73;;;11.40;99.90;;;;;;5018324;28;20049;-70
2023/05/11 02:54:37;;;;;;;50.15;20.33;;;11.40;99.90;;;;;;5012315;28;20034;-71
2023/05/11 02:57:03;;;;;;;61.55;20.90;;;11.40;99.90;;;;;;5016610;28;20173;-72
2023/05/11 02:59:30;;;;;;;55.72;21.65;;;11.40;99.90;;;;;;5020483;28;20149;-71
2023/05/11 03:01:56;;;;;;;54.20;21.10;;;11.30;99.90;;;;;;5015288;28;20056;-71
2023/05/11 03:04:23;;;;;;;54.17;21.25;;;11.30;99.90;;;;;;5015094;28;20049;-70
2023/05/11 03:06:48;;;;;;;62.60;23.42;;;11.40;99.90;;;;;;5014986;28;20033;-72
2023/05/11 03:09:14;;;;;;;62.60;24.63;;;11.40;99.90;;;;;;5017481;28;20040;-71
2023/05/11 03:11:40;;;;;;;60.88;22.75;;;11.40;99.90;;;;;;5002239;28;20540;-71
2023/05/11 03:14:06;;;;;;;61.00;23.08;;;11.40;99.90;;;;;;5002299;28;20041;-69
2023/05/11 03:16:33;;;;;;;62.70;23.75;;;11.40;99.90;;;;;;5023459;28;20075;-70
2023/05/11 03:19:00;;;;;;;61.40;22.90;;;11.40;99.90;;;;;;5000480;28;20054;-69
2023/05/11 03:21:27;;;;;;;62.13;23.25;;;11.40;99.90;;;;;;5015275;28;20041;-71
2023/05/11 03:23:53;;;;;;;60.42;23.63;;;11.40;99.90;;;;;;5013507;28;20414;-71
2023/05/11 03:26:20;;;;;;;56.85;22.20;;;11.40;99.90;;;;;;5015547;28;20038;-70
2023/05/11 03:28:47;;;;;;;58.67;23.98;;;11.40;99.90;;;;;;5017047;28;20033;-71
2023/05/11 03:31:13;;;;;;;53.00;21.08;;;11.40;99.90;;;;;;5046404;28;20029;-69
2023/05/11 03:33:39;;;;;;;53.33;21.77;;;11.40;99.90;;;;;;5026112;28;20056;-71
2023/05/11 03:36:05;;;;;;;53.33;21.25;;;11.40;99.90;;;;;;5020258;28;20389;-70
2023/05/11 03:38:33;;;;;;;51.08;20.77;;;11.40;99.90;;;;;;5015570;28;20068;-71
2023/05/11 03:41:00;;;;;;;56.97;20.17;;;11.40;99.90;;;;;;5014636;28;20145;-71
2023/05/11 03:43:28;;;;;;;52.60;19.98;;;11.40;99.90;;;;;;5019091;28;20168;-71
2023/05/11 03:45:56;;;;;;;47.17;20.38;;;11.40;99.90;;;;;;5026533;28;20046;-71
2023/05/11 03:48:22;;;;;;;47.55;20.65;;;11.40;99.90;;;;;;5021101;28;20037;-71
2023/05/11 03:50:48;;;;;;;54.72;20.67;;;11.40;99.90;;;;;;5027218;28;20080;-71
2023/05/11 03:53:15;;;;;;;56.78;21.23;;;11.40;99.90;;;;;;5015524;28;20092;-71
2023/05/11 03:55:41;;;;;;;53.55;22.08;;;11.40;99.90;;;;;;4995246;28;20063;-71
2023/05/11 03:58:10;;;;;;;45.15;19.02;;;11.40;99.90;;;;;;5025039;28;20046;-70
2023/05/11 04:00:40;;;;;;;42.42;18.52;;;11.30;99.90;;;;;;5025738;28;20038;-72
2023/05/11 04:03:06;;;;;;;41.13;17.95;;;11.30;99.90;;;;;;5022147;28;20136;-71
2023/05/11 04:05:32;;;;;;;43.33;17.70;;;11.20;99.90;;;;;;5021321;28;20123;-69
2023/05/11 04:07:58;;;;;;;41.95;17.73;;;11.20;99.90;;;;;;5017432;28;22836;-70
2023/05/11 04:10:25;;;;;;;44.08;17.00;;;11.10;99.90;;;;;;5016943;28;20063;-69
2023/05/11 04:12:51;;;;;;;36.08;15.13;;;11.10;99.90;;;;;;5019563;28;20533;-71
2023/05/11 04:15:17;;;;;;;34.33;15.18;;;11.00;99.90;;;;;;5017428;28;20371;-72
2023/05/11 04:17:43;;;;;;;37.58;15.00;;;11.00;99.90;;;;;;5016255;28;20092;-70
2023/05/11 04:20:08;;;;;;;35.67;15.05;;;11.10;99.90;;;;;;5018604;28;20041;-70
2023/05/11 04:22:34;;;;;;;30.75;14.52;;;11.10;99.90;;;;;;5020747;28;20053;-71
2023/05/11 04:25:00;;;;;;;25.98;12.55;;;11.00;99.90;;;;;;5015822;28;20046;-71
2023/05/11 04:27:25;;;;;;;28.88;12.90;;;11.00;99.90;;;;;;5018645;28;20385;-70
2023/05/11 04:29:51;;;;;;;26.63;12.45;;;11.00;99.90;;;;;;5018320;28;20069;-72
2023/05/11 04:32:19;;;;;;;26.50;10.77;;;11.00;99.90;;;;;;5019287;28;20378;-69
2023/05/11 04:34:45;;;;;;;27.67;12.43;;;11.00;99.90;;;;;;4997996;28;20052;-72
2023/05/11 04:37:10;;;;;;;25.77;11.07;;;11.00;99.90;;;;;;5020789;28;20045;-71
2023/05/11 04:39:36;;;;;;;29.58;11.80;;;11.00;99.90;;;;;;5017216;28;20041;-70
2023/05/11 04:42:01;;;;;;;27.70;11.20;;;11.10;99.90;;;;;;5028724;28;20057;-71
2023/05/11 04:44:27;;;;;;;31.25;12.55;;;11.10;99.90;;;;;;5019319;28;20528;-71
2023/05/11 04:46:55;;;;;;;28.10;11.88;;;11.10;99.90;;;;;;5018142;28;20077;-71
2023/05/11 04:49:20;;;;;;;27.42;12.40;;;11.10;99.90;;;;;;5003282;28;20056;-71
2023/05/11 04:51:46;;;;;;;27.90;12.10;;;11.10;99.90;;;;;;5016657;28;22653;-71
2023/05/11 04:54:11;;;;;;;24.70;11.05;;;11.10;99.90;;;;;;5001466;28;20077;-69
2023/05/11 04:56:39;;;;;;;25.27;11.85;;;11.10;99.90;;;;;;5016483;28;20042;-72
2023/05/11 04:59:05;;;;;;;29.05;11.65;;;11.10;99.90;;;;;;5012567;28;20037;-70
2023/05/11 05:01:31;;;;;;;29.90;12.13;;;11.10;99.90;;;;;;5017097;28;20086;-70
2023/05/11 05:03:57;;;;;;;28.52;11.30;;;11.10;99.90;;;;;;5000663;28;20393;-71
2023/05/11 05:06:22;;;;;;;24.88;11.13;;;11.20;99.90;;;;;;5004453;28;20037;-71
2023/05/11 05:08:48;;;;;;;29.50;11.65;;;11.20;99.90;;;;;;5007958;28;20037;-69
2023/05/11 05:11:13;;;;;;;23.05;10.85;;;11.20;99.90;;;;;;5015184;28;20037;-69
2023/05/11 05:13:39;;;;;;;28.60;11.77;;;11.30;99.90;;;;;;5017647;28;20512;-71
2023/05/11 05:16:05;;;;;;;26.83;11.90;;;11.30;99.90;;;;;;5018087;28;20053;-72
2023/05/11 05:18:31;;;;;;;25.13;11.57;;;11.30;99.90;;;;;;5003361;28;20938;-70
2023/05/11 05:20:57;;;;;;;28.67;11.15;;;11.30;99.90;;;;;;5019004;28;20045;-70
2023/05/11 05:23:22;;;;;;;26.08;11.43;;;11.30;99.90;;;;;;5015888;28;20052;-71
2023/05/11 05:25:48;;;;;;;25.50;11.38;;;11.40;99.90;;;;;;5004116;28;20044;-72
2023/05/11 05:28:13;;;;;;;26.45;11.27;;;11.40;99.90;;;;;;5014646;28;20440;-71
2023/05/11 05:30:39;;;;;;;25.98;10.82;;;11.50;99.90;;;;;;5021906;28;20465;-72
2023/05/11 05:33:05;;;;;;;23.92;11.13;;;11.50;99.90;;;;;;5010305;28;20045;-72
2023/05/11 05:35:30;;;;;;;28.13;11.85;;;11.50;99.90;;;;;;5026999;28;20037;-72
2023/05/11 05:37:56;;;;;;;28.75;12.43;;;11.60;99.90;;;;;;5015598;28;20102;-72
2023/05/11 05:40:21;;;;;;;28.52;12.43;;;11.60;99.90;;;;;;5025017;28;20046;-71
2023/05/11 05:42:47;;;;;;;25.55;12.05;;;11.70;99.90;;;;;;5031950;28;20044;-71
2023/05/11 05:45:13;;;;;;;29.40;11.75;;;11.60;99.90;;;;;;5019801;28;20098;-71
2023/05/11 05:47:38;;;;;;;27.80;12.38;;;11.60;99.90;;;;;;5031787;28;20060;-71
2023/05/11 05:50:06;;;;;;;29.23;13.30;;;11.50;99.90;;;;;;5014580;28;20409;-72
2023/05/11 05:52:31;;;;;;;26.85;12.43;;;11.60;99.90;;;;;;5021237;28;20029;-71
2023/05/11 05:54:57;;;;;;;25.70;12.18;;;11.60;99.90;;;;;;5028061;28;20059;-71
2023/05/11 05:57:23;;;;;;;27.42;12.40;;;11.50;99.90;;;;;;5025659;28;20056;-72
2023/05/11 05:59:49;;;;;;;28.45;12.43;;;11.50;99.90;;;;;;5020370;28;20056;-70
2023/05/11 06:02:15;;;;;;;25.75;12.50;;;11.60;99.90;;;;;;5006844;28;20119;-71
2023/05/11 06:04:41;;;;;;;26.48;12.15;;;11.60;99.90;;;;;;5020205;28;20131;-71
2023/05/11 06:07:07;;;;;;;29.23;12.75;;;11.70;99.90;;;;;;5019094;28;20469;-70
2023/05/11 06:09:32;;;;;;;29.55;13.55;;;11.70;99.90;;;;;;5027852;28;20037;-72
2023/05/11 06:11:58;;;;;;;30.42;13.13;;;11.70;99.90;;;;;;5011575;28;20049;-71
2023/05/11 06:14:24;;;;;;;30.42;13.55;;;11.80;99.90;;;;;;5025204;28;20045;-72
2023/05/11 06:16:49;;;;;;;27.17;13.35;;;11.80;99.90;;;;;;5009855;28;20044;-71
2023/05/11 06:19:15;;;;;;;30.63;13.65;;;11.90;99.90;;;;;;5018395;28;20140;-71
2023/05/11 06:21:42;;;;;;;30.80;13.70;;;11.90;99.90;;;;;;5009670;28;20042;-72
2023/05/11 06:24:08;;;;;;;33.83;13.98;;;11.90;99.90;;;;;;5013711;28;20054;-71
2023/05/11 06:26:33;;;;;;;33.17;13.57;;;11.90;99.90;;;;;;5016316;28;20583;-70
2023/05/11 06:28:59;;;;;;;31.05;14.32;;;11.90;99.90;;;;;;5010120;28;20050;-70
2023/05/11 06:31:25;;;;;;;29.83;13.50;;;11.80;99.90;;;;;;5007132;28;20036;-69
2023/05/11 06:33:51;;;;;;;26.98;13.15;;;11.80;99.90;;;;;;5008703;28;20041;-72
2023/05/11 06:36:16;;;;;;;26.33;13.73;;;11.70;99.90;;;;;;5000820;28;20048;-71
2023/05/11 06:38:42;;;;;;;31.48;14.15;;;11.90;99.90;;;;;;5009208;28;20045;-72
2023/05/11 06:41:10;;;;;;;28.58;14.80;;;11.90;99.90;;;;;;5009137;28;20136;-72
2023/05/11 06:43:36;;;;;;;33.22;15.32;;;12.00;99.90;;;;;;5011431;28;20148;-72
2023/05/11 06:46:02;;;;;;;27.25;13.20;;;12.00;99.90;;;;;;5031023;28;20128;-72
2023/05/11 06:48:28;;;;;;;30.52;14.10;;;12.00;99.90;;;;;;5012136;28;20644;-71
2023/05/11 06:50:54;;;;;;;32.22;14.75;;;12.10;99.90;;;;;;5023637;28;20418;-71
2023/05/11 06:53:20;;;;;;;31.58;14.23;;;12.10;99.90;;;;;;5030279;28;20147;-70
2023/05/11 06:55:46;;;;;;;29.13;14.50;;;12.10;99.90;;;;;;5029703;28;20700;-71
2023/05/11 06:58:12;;;;;;;29.55;14.65;;;12.10;99.90;;;;;;5023974;28;20489;-69
2023/05/11 07:00:38;;;;;;;27.38;14.27;;;12.10;99.90;;;;;;5017443;28;20033;-71
2023/05/11 07:03:04;;;;;;;30.88;14.93;;;12.10;99.90;;;;;;5015248;28;20049;-71
2023/05/11 07:05:30;;;;;;;30.05;14.35;;;12.10;99.90;;;;;;5014951;28;20663;-72
2023/05/11 07:07:56;;;;;;;29.60;14.95;;;12.10;99.90;;;;;;5051465;28;20120;-71
2023/05/11 07:10:21;;;;;;;32.17;14.90;;;12.10;99.90;;;;;;5020743;28;20417;-70
2023/05/11 07:12:47;;;;;;;29.58;15.07;;;12.10;99.90;;;;;;5011270;28;20045;-71
2023/05/11 07:15:13;;;;;;;30.08;15.93;;;12.10;99.90;;;;;;5008195;28;20423;-71
2023/05/11 07:17:38;;;;;;;35.17;16.77;;;12.10;99.90;;;;;;5013075;28;20046;-71
2023/05/11 07:20:05;;;;;;;34.53;16.20;;;12.10;99.90;;;;;;5007339;28;20100;-70
2023/05/11 07:22:30;;;;;;;40.28;17.10;;;12.20;99.90;;;;;;5011250;28;20446;-71
2023/05/11 07:24:56;;;;;;;31.98;14.95;;;12.20;99.90;;;;;;5010837;28;20076;-72
2023/05/11 07:27:21;;;;;;;32.88;15.10;;;12.20;99.90;;;;;;5010026;28;20034;-70
2023/05/11 07:29:47;;;;;;;41.83;16.85;;;12.10;99.90;;;;;;5011675;28;20088;-72
2023/05/11 07:32:12;;;;;;;33.53;16.88;;;12.20;99.90;;;;;;5009586;28;20045;-71
2023/05/11 07:34:39;;;;;;;31.58;15.93;;;12.20;99.90;;;;;;5017441;28;20044;-69
2023/05/11 07:37:07;;;;;;;33.60;15.85;;;12.20;99.90;;;;;;5019941;28;20061;-70
2023/05/11 07:39:33;;;;;;;30.08;14.00;;;12.20;99.90;;;;;;4994926;28;20046;-70
2023/05/11 07:41:58;;;;;;;32.47;15.15;;;12.30;99.90;;;;;;5009589;28;20052;-71
2023/05/11 07:44:24;;;;;;;29.08;14.70;;;12.30;99.90;;;;;;5009417;28;20052;-71
2023/05/11 07:46:49;;;;;;;28.67;14.05;;;12.30;99.90;;;;;;5012043;28;20049;-70
2023/05/11 07:49:15;;;;;;;29.13;13.52;;;12.30;99.90;;;;;;4993187;28;20057;-71
2023/05/11 07:51:41;;;;;;;31.63;14.05;;;12.30;99.90;;;;;;5016824;28;20128;-70
2023/05/11 07:54:07;;;;;;;26.50;13.10;;;12.30;99.90;;;;;;5022758;28;20548;-70
2023/05/11 07:56:32;;;;;;;30.70;14.35;;;12.40;99.90;;;;;;5043365;28;20440;-70
2023/05/11 07:58:58;;;;;;;29.20;13.90;;;12.40;99.90;;;;;;5031238;28;20053;-70
2023/05/11 08:01:23;;;;;;;33.25;15.05;;;12.50;99.90;;;;;;5018828;28;20029;-70
2023/05/11 08:03:49;;;;;;;32.53;14.75;;;12.60;99.90;;;;;;4993313;28;20104;-71
2023/05/11 08:06:14;;;;;;;30.70;14.85;;;12.70;99.90;;;;;;5015934;28;20042;-70
2023/05/11 08:08:40;;;;;;;30.40;14.85;;;12.70;99.90;;;;;;5023070;28;20129;-71
2023/05/11 08:11:06;;;;;;;29.98;14.40;;;12.80;99.90;;;;;;5012285;28;20394;-71
2023/05/11 08:13:31;;;;;;;27.15;13.52;;;12.90;99.90;;;;;;5016988;28;20048;-70
2023/05/11 08:15:57;;;;;;;26.80;13.85;;;13.00;99.90;;;;;;5024073;28;20076;-71
2023/05/11 08:18:22;;;;;;;28.10;14.57;;;13.10;99.90;;;;;;5029519;28;20531;-71
2023/05/11 08:20:48;;;;;;;24.17;13.30;;;13.10;99.90;;;;;;5025901;28;20033;-71
2023/05/11 08:23:17;;;;;;;26.77;13.07;;;13.20;99.90;;;;;;5015643;28;20060;-70
2023/05/11 08:25:50;;;;;;;27.88;12.60;;;13.30;99.90;;;;;;5044816;28;20124;-71
2023/05/11 08:28:17;;;;;;;25.67;13.70;;;13.40;99.90;;;;;;5023523;28;20048;-71
2023/05/11 08:30:42;;;;;;;24.50;12.60;;;13.60;99.90;;;;;;5023067;28;20092;-72
2023/05/11 08:33:08;;;;;;;22.05;12.43;;;13.60;99.90;;;;;;5026944;28;20099;-69
2023/05/11 08:35:34;;;;;;;28.10;12.82;;;13.70;99.90;;;;;;5011081;28;20034;-70
2023/05/11 08:38:00;;;;;;;24.13;12.25;;;13.70;99.90;;;;;;5006709;28;20127;-72
2023/05/11 08:40:26;;;;;;;23.50;12.10;;;13.70;99.90;;;;;;5026604;28;20612;-70
2023/05/11 08:42:54;;;;;;;24.65;12.80;;;13.80;99.90;;;;;;5030527;28;20057;-71
2023/05/11 08:45:21;;;;;;;24.05;12.32;;;13.80;99.90;;;;;;5021925;28;20133;-71
2023/05/11 08:47:48;;;;;;;23.20;12.70;;;13.70;99.90;;;;;;5023337;28;20172;-71
2023/05/11 08:50:14;;;;;;;24.15;12.27;;;13.70;99.90;;;;;;5013942;28;20124;-71
2023/05/11 08:52:40;;;;;;;23.27;12.10;;;13.60;99.90;;;;;;5026207;28;20049;-70
2023/05/11 08:55:09;;;;;;;24.60;12.90;;;13.60;99.90;;;;;;5025661;28;20368;-70
2023/05/11 08:57:36;;;;;;;21.27;11.93;;;13.70;99.90;;;;;;5032599;28;20068;-71
2023/05/11 09:00:03;;;;;;;21.75;11.43;;;13.70;99.90;;;;;;5020061;28;20118;-70
2023/05/11 09:02:29;;;;;;;20.15;10.98;;;13.70;99.90;;;;;;5025270;28;20042;-71
2023/05/11 09:04:57;;;;;;;18.27;10.45;;;13.70;99.90;;;;;;5012112;28;20608;-71
2023/05/11 09:07:25;;;;;;;19.50;10.23;;;13.60;99.90;;;;;;5031754;28;20560;-71
2023/05/11 09:09:51;;;;;;;18.52;10.55;;;13.60;99.90;;;;;;5024874;28;20060;-71
2023/05/11 09:12:17;;;;;;;22.38;11.02;;;13.60;99.90;;;;;;5025659;28;20120;-71
2023/05/11 09:14:43;;;;;;;20.58;11.27;;;13.60;99.90;;;;;;5028097;28;20034;-70
2023/05/11 09:17:09;;;;;;;18.33;10.85;;;13.60;99.90;;;;;;5019504;28;20053;-71
2023/05/11 09:19:34;;;;;;;19.25;10.70;;;13.60;99.90;;;;;;5018087;28;20397;-71
2023/05/11 09:22:00;;;;;;;19.50;10.88;;;13.50;99.90;;;;;;5018496;28;20034;-71
2023/05/11 09:24:26;;;;;;;17.95;10.35;;;13.50;99.90;;;;;;5046461;28;20040;-71
2023/05/11 09:27:10;;;;;;;19.05;9.40;;;13.50;99.90;;;;;;5024515;28;20045;-71
2023/05/11 09:29:35;;;;;;;17.80;10.57;;;13.50;99.90;;;;;;5011725;28;20379;-70
2023/05/11 09:32:01;;;;;;;16.83;9.82;;;13.50;99.90;;;;;;5021896;28;20049;-71
2023/05/11 09:34:27;;;;;;;16.25;10.07;;;13.60;99.90;;;;;;5026340;28;20042;-70
2023/05/11 09:36:53;;;;;;;17.15;9.93;;;13.60;99.90;;;;;;5028121;28;20044;-71
2023/05/11 09:39:30;;;;;;;18.63;9.32;;;13.70;99.90;;;;;;5015014;28;20084;-71
2023/05/11 09:42:15;;;;;;;16.58;9.43;;;13.70;99.90;;;;;;5029172;28;20054;-70
2023/05/11 09:44:44;;;;;;;15.70;9.18;;;13.90;99.90;;;;;;5037191;28;20037;-71
2023/05/11 09:47:15;;;;;;;16.85;9.70;;;14.10;99.90;;;;;;5015648;28;20163;-70
2023/05/11 09:49:42;;;;;;;16.40;9.45;;;14.40;99.90;;;;;;5021711;28;20042;-69
2023/05/11 09:52:10;;;;;;;14.82;9.07;;;14.60;99.90;;;;;;5017255;28;20073;-70
2023/05/11 09:54:46;;;;;;;15.65;9.75;;;14.80;99.90;;;;;;5013042;28;20127;-69
2023/05/11 09:57:22;;;;;;;14.50;9.55;;;14.70;99.90;;;;;;5016832;28;20469;-70
2023/05/11 09:59:48;;;;;;;15.73;8.40;;;14.70;99.90;;;;;;5020658;28;20498;-70
2023/05/11 10:02:22;;;;;;;12.40;8.30;;;14.70;99.90;;;;;;5018360;28;20081;-71
2023/05/11 10:04:49;;;;;;;16.90;9.20;;;14.90;99.90;;;;;;5027907;28;20041;-70
2023/05/11 10:07:29;;;;;;;17.00;10.27;;;15.00;99.90;;;;;;5030632;28;20037;-71
2023/05/11 10:09:57;;;;;;;16.02;9.52;;;15.10;99.90;;;;;;5021076;28;20040;-70
2023/05/11 10:12:24;;;;;;;16.48;9.80;;;15.20;99.90;;;;;;5025174;28;20095;-71
2023/05/11 10:14:51;;;;;;;16.95;9.65;;;15.10;99.90;;;;;;5028497;28;20037;-72
2023/05/11 10:17:18;;;;;;;16.70;9.73;;;15.10;99.90;;;;;;5014331;28;20128;-70
2023/05/11 10:19:44;;;;;;;14.48;9.60;;;15.20;99.90;;;;;;5015588;28;20091;-70
2023/05/11 10:22:11;;;;;;;13.77;8.85;;;15.40;99.90;;;;;;5030042;28;20044;-69
2023/05/11 10:24:37;;;;;;;14.05;9.27;;;15.80;99.90;;;;;;5015600;28;20041;-70
2023/05/11 10:27:03;;;;;;;15.02;9.40;;;16.30;99.90;;;;;;5030048;28;20409;-70
2023/05/11 10:29:30;;;;;;;17.80;11.88;;;16.70;99.90;;;;;;5015744;28;20041;-71
2023/05/11 10:31:57;;;;;;;16.40;11.25;;;16.90;99.90;;;;;;5026400;28;20045;-70
2023/05/11 10:34:23;;;;;;;18.35;11.73;;;17.00;99.90;;;;;;5025855;28;20049;-70
2023/05/11 10:36:50;;;;;;;19.40;11.68;;;17.00;99.90;;;;;;5012633;28;20030;-70
2023/05/11 10:39:16;;;;;;;21.60;12.85;;;17.00;99.90;;;;;;5011722;28;20172;-70
2023/05/11 10:42:05;;;;;;;18.15;12.20;;;16.90;99.90;;;;;;5018383;28;20140;-70
2023/05/11 10:44:52;;;;;;;20.38;12.35;;;16.70;99.90;;;;;;5028712;28;20044;-70
2023/05/11 10:47:45;;;;;;;19.08;12.00;;;16.60;99.90;;;;;;5017363;28;20552;-69
2023/05/11 10:50:16;;;;;;;18.48;11.85;;;16.40;99.90;;;;;;5026871;28;20029;-70
2023/05/11 10:53:13;;;;;;;19.58;11.77;;;16.30;99.90;;;;;;5028213;28;20034;-72
2023/05/11 10:55:38;;;;;;;24.40;12.43;;;16.20;99.90;;;;;;5025613;28;20045;-69
2023/05/11 10:58:53;;;;;;;21.23;13.07;;;16.20;99.90;;;;;;5029097;28;20057;-70
2023/05/11 11:01:28;;;;;;;21.20;13.07;;;16.30;99.90;;;;;;5041208;28;20044;-70
2023/05/11 11:03:59;;;;;;;16.13;10.02;;;16.30;99.90;;;;;;5027121;28;20057;-70
2023/05/11 11:06:25;;;;;;;12.60;8.27;;;16.30;99.90;;;;;;5018117;28;20444;-69
2023/05/11 11:08:58;;;;;;;12.23;8.25;;;16.20;99.90;;;;;;5026988;28;20041;-70
2023/05/11 11:11:35;;;;;;;10.95;8.05;;;16.20;99.90;;;;;;5030288;28;20072;-69
2023/05/11 11:14:04;;;;;;;12.73;7.82;;;16.30;99.90;;;;;;5031637;28;20045;-70
2023/05/11 11:16:30;;;;;;;14.10;8.27;;;16.40;99.90;;;;;;5017052;28;20049;-70
2023/05/11 11:19:27;;;;;;;12.15;8.20;;;16.50;99.90;;;;;;5011050;28;20046;-70
2023/05/11 11:21:53;;;;;;;10.95;7.35;;;16.50;99.90;;;;;;5040394;28;20092;-71
2023/05/11 11:24:37;;;;;;;10.15;6.55;;;16.60;99.90;;;;;;5027704;28;20045;-70
2023/05/11 11:27:03;;;;;;;10.32;7.22;;;16.60;99.90;;;;;;5026786;28;20428;-71
2023/05/11 11:29:30;;;;;;;9.10;5.53;;;16.60;99.90;;;;;;5030845;28;20124;-70
2023/05/11 11:32:18;;;;;;;10.20;5.72;;;16.60;99.90;;;;;;5010741;28;20037;-70
2023/05/11 11:34:45;;;;;;;8.23;5.65;;;16.60;99.90;;;;;;5017146;28;20099;-70
2023/05/11 11:37:12;;;;;;;8.85;5.75;;;16.60;99.90;;;;;;5023378;28;20107;-69
2023/05/11 11:39:40;;;;;;;8.38;5.53;;;16.60;99.90;;;;;;5021601;28;20037;-70
2023/05/11 11:42:15;;;;;;;11.52;6.72;;;16.60;99.90;;;;;;5024393;28;20056;-69
2023/05/11 11:44:42;;;;;;;9.40;5.90;;;16.70;99.90;;;;;;5017309;28;20049;-70
2023/05/11 11:47:14;;;;;;;9.07;6.32;;;16.70;99.90;;;;;;5027077;28;20189;-70
2023/05/11 11:49:42;;;;;;;8.63;6.07;;;16.60;99.90;;;;;;5029720;28;20413;-70
2023/05/11 11:52:27;;;;;;;9.20;6.10;;;16.80;99.90;;;;;;5020259;28;20477;-71
2023/05/11 11:54:54;;;;;;;12.35;5.72;;;17.00;99.90;;;;;;4998632;28;20033;-70
2023/05/11 11:57:32;;;;;;;9.18;5.97;;;17.30;99.90;;;;;;5031144;28;20045;-70
2023/05/11 12:00:06;;;;;;;9.32;5.45;;;17.50;99.90;;;;;;5021240;28;20144;-70
2023/05/11 12:02:32;;;;;;;10.48;6.47;;;18.00;99.90;;;;;;5023812;28;20381;-69
2023/05/11 12:05:21;;;;;;;7.70;5.18;;;18.30;99.90;;;;;;5025909;28;20045;-70
2023/05/11 12:07:48;;;;;;;7.72;5.45;;;18.30;99.90;;;;;;5028859;28;20045;-69
2023/05/11 12:10:16;;;;;;;7.75;5.38;;;18.40;99.90;;;;;;5026569;28;20046;-71
2023/05/11 12:12:49;;;;;;;7.25;5.10;;;18.30;99.60;;;;;;5027153;28;20091;-70
2023/05/11 12:15:31;;;;;;;8.02;5.60;;;18.30;99.20;;;;;;5018701;28;20034;-70
2023/05/11 12:17:57;;;;;;;8.65;5.35;;;18.30;97.40;;;;;;5028075;28;20497;-70
2023/05/11 12:20:22;;;;;;;8.15;4.88;;;18.40;99.50;;;;;;5030216;28;20044;-70
2023/05/11 12:22:49;;;;;;;6.82;5.05;;;18.50;99.00;;;;;;5028650;28;20083;-70
2023/05/11 12:25:16;;;;;;;9.32;4.05;;;18.60;97.90;;;;;;5016289;28;20412;-71
2023/05/11 12:28:00;;;;;;;7.95;4.32;;;18.60;96.60;;;;;;5032114;28;20091;-70
2023/05/11 12:30:28;;;;;;;5.32;3.72;;;18.40;97.10;;;;;;5030777;28;20041;-70
2023/05/11 12:32:54;;;;;;;4.97;3.72;;;18.30;98.20;;;;;;4999664;28;20493;-70
2023/05/11 12:35:27;;;;;;;5.68;3.67;;;18.10;98.20;;;;;;5022455;28;20029;-69
2023/05/11 12:37:54;;;;;;;8.85;4.38;;;17.90;97.40;;;;;;5026945;28;20083;-70